Aérodrome :
LOGIN :

S'inscrire | Disclaimer

   EN    FR    IT 

 










Légende :    VFR   VFR Marginal   IFR   IFR Intensif   IFR Très Intensif
Visi : 
Plafond : 
>= 8 km
>= 3000ft
5 à 8 km
1000 à 3000 ft
1500m à 5 km
500 à 1000 ft
800 à 1500m
200 à 500 ft
< 800m
< 200 ft
Symboles :   Orages  Brouillard  Fortes neiges  Fortes précipitations  Vent > 20 kt
SIGMETs :   Divers  Orages  Givrage  Turbulence  Onde Orograph.  Cendres Volcan.






- Altitude de l'aérodrome : 83 ft
- Code IATA : LHR


EGLL - London Heathrow

DERNIER METAR :
  • 231050Z AUTO 22010KT 9999 SCT020/// BKN027/// BKN048/// //////CB 14/12 Q1007 TEMPO SHRA BKN014

METARs EXPIRÉS :
  • 231020Z AUTO 22011KT 9999 -RA BKN022/// BKN039/// //////TCU 14/12 Q1007 TEMPO SHRA BKN012
  • 230950Z AUTO 21010KT 9999 BKN018/// //////TCU 15/11 Q1007 TEMPO SHRA BKN012
  • 230920Z AUTO 20009KT 180V240 9999 SCT014 14/11 Q1007 TEMPO SHRA BKN012
  • 230850Z AUTO 21009KT 180V250 9999 FEW014 14/11 Q1007 TEMPO SHRA BKN012
  • 230820Z AUTO 20008KT 9999 FEW025 13/11 Q1007 TEMPO SHRA

TAF TAF EGLL
Valide du 23 à 06h jusqu'au 24 à 12h UTC


230454Z 2306/2412 16004KT 9999 SCT015
BECMG 2306/2309 22010KT
PROB40
TEMPO 2306/2310 BKN012
PROB30
TEMPO 2306/2314 7000 SHRA RA
PROB40
TEMPO 2314/2320 6000 -RADZ BKN010
BECMG 2408/2411 19020G30KT
PROB30
TEMPO 2408/2412 8000 -RA BKN014



MET'MAP, la Météo Aéronautique d'un coup d'oeil ! - Copyright ORBIFLY Décembre 2007 - Disclaimer

ORBIFLY MET'MAP TEAM :

Programmation & Développement : Alexandra Zaïnal
Sur une idée originale de : Baudouin d'Aumeries
Assistance à la programmation : Marc-Olivier Méhu
Soutien technique & logistique : Manuel Goepfert

Contact : metmap@orbifly.com




SOURCES & CREDITS :

   NOAA